sensor_id;sensor_type;location;lat;lon;timestamp;P1;durP1;ratioP1;P2;durP2;ratioP2
42602;SDS011;28233;55.748;48.752;2023-11-21T00:00:15;6.70;;;3.38;;
42602;SDS011;28233;55.748;48.752;2023-11-21T00:02:19;7.03;;;3.60;;
42602;SDS011;28233;55.748;48.752;2023-11-21T00:04:22;7.22;;;3.70;;
42602;SDS011;28233;55.748;48.752;2023-11-21T00:06:25;10.02;;;3.92;;
42602;SDS011;28233;55.748;48.752;2023-11-21T00:08:28;6.43;;;3.60;;
42602;SDS011;28233;55.748;48.752;2023-11-21T00:10:32;5.75;;;3.25;;
42602;SDS011;28233;55.748;48.752;2023-11-21T00:12:35;7.03;;;3.63;;
42602;SDS011;28233;55.748;48.752;2023-11-21T00:14:38;8.20;;;3.47;;
42602;SDS011;28233;55.748;48.752;2023-11-21T00:16:42;6.85;;;3.55;;
42602;SDS011;28233;55.748;48.752;2023-11-21T00:18:45;9.48;;;4.20;;
42602;SDS011;28233;55.748;48.752;2023-11-21T00:20:49;12.90;;;3.63;;
42602;SDS011;28233;55.748;48.752;2023-11-21T00:22:51;6.82;;;3.78;;
42602;SDS011;28233;55.748;48.752;2023-11-21T00:24:54;18.35;;;4.53;;
42602;SDS011;28233;55.748;48.752;2023-11-21T00:26:57;8.65;;;3.97;;
42602;SDS011;28233;55.748;48.752;2023-11-21T00:29:01;6.68;;;2.88;;
42602;SDS011;28233;55.748;48.752;2023-11-21T00:31:04;8.15;;;3.28;;
42602;SDS011;28233;55.748;48.752;2023-11-21T00:33:07;5.70;;;3.03;;
42602;SDS011;28233;55.748;48.752;2023-11-21T00:35:10;8.43;;;3.40;;
42602;SDS011;28233;55.748;48.752;2023-11-21T00:37:14;7.60;;;3.17;;
42602;SDS011;28233;55.748;48.752;2023-11-21T00:39:17;4.95;;;2.70;;
42602;SDS011;28233;55.748;48.752;2023-11-21T00:41:20;4.55;;;3.30;;
42602;SDS011;28233;55.748;48.752;2023-11-21T00:43:23;7.00;;;3.75;;
42602;SDS011;28233;55.748;48.752;2023-11-21T00:45:27;5.65;;;3.20;;
42602;SDS011;28233;55.748;48.752;2023-11-21T00:47:30;5.55;;;3.17;;
42602;SDS011;28233;55.748;48.752;2023-11-21T00:49:33;4.97;;;2.88;;
42602;SDS011;28233;55.748;48.752;2023-11-21T00:51:36;7.00;;;3.08;;
42602;SDS011;28233;55.748;48.752;2023-11-21T00:53:39;5.97;;;2.78;;
42602;SDS011;28233;55.748;48.752;2023-11-21T00:55:42;6.30;;;2.95;;
42602;SDS011;28233;55.748;48.752;2023-11-21T00:57:45;11.27;;;3.70;;
42602;SDS011;28233;55.748;48.752;2023-11-21T00:59:48;7.60;;;2.60;;
42602;SDS011;28233;55.748;48.752;2023-11-21T01:01:51;5.93;;;2.95;;
42602;SDS011;28233;55.748;48.752;2023-11-21T01:03:54;6.40;;;2.88;;
42602;SDS011;28233;55.748;48.752;2023-11-21T01:05:57;7.63;;;3.00;;
42602;SDS011;28233;55.748;48.752;2023-11-21T01:08:00;5.57;;;2.78;;
42602;SDS011;28233;55.748;48.752;2023-11-21T01:10:03;5.70;;;3.03;;
42602;SDS011;28233;55.748;48.752;2023-11-21T01:12:10;5.15;;;3.10;;
42602;SDS011;28233;55.748;48.752;2023-11-21T01:14:13;6.85;;;3.28;;
42602;SDS011;28233;55.748;48.752;2023-11-21T01:16:16;6.55;;;2.78;;
42602;SDS011;28233;55.748;48.752;2023-11-21T01:18:20;7.13;;;2.70;;
42602;SDS011;28233;55.748;48.752;2023-11-21T01:20:23;7.15;;;3.83;;
42602;SDS011;28233;55.748;48.752;2023-11-21T01:22:26;6.20;;;2.53;;
42602;SDS011;28233;55.748;48.752;2023-11-21T01:24:29;6.50;;;3.35;;
42602;SDS011;28233;55.748;48.752;2023-11-21T01:26:32;6.28;;;3.10;;
42602;SDS011;28233;55.748;48.752;2023-11-21T01:28:36;6.43;;;3.03;;
42602;SDS011;28233;55.748;48.752;2023-11-21T01:30:39;4.10;;;2.65;;
42602;SDS011;28233;55.748;48.752;2023-11-21T01:32:43;5.72;;;2.60;;
42602;SDS011;28233;55.748;48.752;2023-11-21T01:34:47;8.95;;;2.90;;
42602;SDS011;28233;55.748;48.752;2023-11-21T01:36:50;4.10;;;3.00;;
42602;SDS011;28233;55.748;48.752;2023-11-21T01:38:53;5.53;;;2.38;;
42602;SDS011;28233;55.748;48.752;2023-11-21T01:40:57;7.60;;;2.95;;
42602;SDS011;28233;55.748;48.752;2023-11-21T01:43:03;5.03;;;2.28;;
42602;SDS011;28233;55.748;48.752;2023-11-21T01:45:06;6.20;;;2.58;;
42602;SDS011;28233;55.748;48.752;2023-11-21T01:47:09;4.57;;;2.65;;
42602;SDS011;28233;55.748;48.752;2023-11-21T01:49:13;4.03;;;2.55;;
42602;SDS011;28233;55.748;48.752;2023-11-21T01:51:17;6.72;;;3.50;;
42602;SDS011;28233;55.748;48.752;2023-11-21T01:53:21;5.47;;;2.42;;
42602;SDS011;28233;55.748;48.752;2023-11-21T01:55:24;4.95;;;2.75;;
42602;SDS011;28233;55.748;48.752;2023-11-21T01:57:30;4.93;;;2.70;;
42602;SDS011;28233;55.748;48.752;2023-11-21T01:59:39;4.10;;;2.35;;
42602;SDS011;28233;55.748;48.752;2023-11-21T02:01:44;5.32;;;2.35;;
42602;SDS011;28233;55.748;48.752;2023-11-21T02:03:49;3.25;;;1.98;;
42602;SDS011;28233;55.748;48.752;2023-11-21T02:05:52;3.22;;;2.10;;
42602;SDS011;28233;55.748;48.752;2023-11-21T02:07:56;6.10;;;2.53;;
42602;SDS011;28233;55.748;48.752;2023-11-21T02:09:59;10.68;;;2.67;;
42602;SDS011;28233;55.748;48.752;2023-11-21T02:12:04;7.00;;;2.65;;
42602;SDS011;28233;55.748;48.752;2023-11-21T02:14:07;4.40;;;2.55;;
42602;SDS011;28233;55.748;48.752;2023-11-21T02:16:12;5.10;;;3.10;;
42602;SDS011;28233;55.748;48.752;2023-11-21T02:18:16;4.90;;;2.38;;
42602;SDS011;28233;55.748;48.752;2023-11-21T02:20:21;5.82;;;2.70;;
42602;SDS011;28233;55.748;48.752;2023-11-21T02:22:25;3.83;;;2.40;;
42602;SDS011;28233;55.748;48.752;2023-11-21T02:24:33;4.57;;;2.42;;
42602;SDS011;28233;55.748;48.752;2023-11-21T02:26:36;4.05;;;2.22;;
42602;SDS011;28233;55.748;48.752;2023-11-21T02:28:39;4.95;;;2.65;;
42602;SDS011;28233;55.748;48.752;2023-11-21T02:30:42;22.33;;;5.40;;
42602;SDS011;28233;55.748;48.752;2023-11-21T02:32:46;7.15;;;3.92;;
42602;SDS011;28233;55.748;48.752;2023-11-21T02:34:52;5.57;;;2.90;;
42602;SDS011;28233;55.748;48.752;2023-11-21T02:37:05;4.45;;;2.08;;
42602;SDS011;28233;55.748;48.752;2023-11-21T02:39:09;6.97;;;2.67;;
42602;SDS011;28233;55.748;48.752;2023-11-21T02:41:13;5.72;;;3.83;;
42602;SDS011;28233;55.748;48.752;2023-11-21T02:43:16;5.40;;;2.55;;
42602;SDS011;28233;55.748;48.752;2023-11-21T02:45:19;3.65;;;3.13;;
42602;SDS011;28233;55.748;48.752;2023-11-21T02:47:24;5.10;;;2.65;;
42602;SDS011;28233;55.748;48.752;2023-11-21T02:49:27;5.40;;;2.75;;
42602;SDS011;28233;55.748;48.752;2023-11-21T02:51:30;3.47;;;2.20;;
42602;SDS011;28233;55.748;48.752;2023-11-21T02:53:33;5.78;;;2.42;;
42602;SDS011;28233;55.748;48.752;2023-11-21T02:55:36;4.18;;;2.55;;
42602;SDS011;28233;55.748;48.752;2023-11-21T02:57:39;5.15;;;2.22;;
42602;SDS011;28233;55.748;48.752;2023-11-21T02:59:42;3.70;;;2.00;;
42602;SDS011;28233;55.748;48.752;2023-11-21T03:01:45;2.95;;;1.98;;
42602;SDS011;28233;55.748;48.752;2023-11-21T03:03:48;5.40;;;2.08;;
42602;SDS011;28233;55.748;48.752;2023-11-21T03:05:53;4.25;;;2.25;;
42602;SDS011;28233;55.748;48.752;2023-11-21T03:07:56;6.00;;;2.28;;
42602;SDS011;28233;55.748;48.752;2023-11-21T03:09:59;7.65;;;2.63;;
42602;SDS011;28233;55.748;48.752;2023-11-21T03:12:04;3.80;;;2.35;;
42602;SDS011;28233;55.748;48.752;2023-11-21T03:14:08;5.38;;;2.72;;
42602;SDS011;28233;55.748;48.752;2023-11-21T03:16:11;8.65;;;2.67;;
42602;SDS011;28233;55.748;48.752;2023-11-21T03:18:15;5.18;;;2.75;;
42602;SDS011;28233;55.748;48.752;2023-11-21T03:20:18;2.28;;;1.85;;
42602;SDS011;28233;55.748;48.752;2023-11-21T03:22:21;5.82;;;2.58;;
42602;SDS011;28233;55.748;48.752;2023-11-21T03:24:24;3.45;;;2.13;;
42602;SDS011;28233;55.748;48.752;2023-11-21T03:26:28;5.80;;;3.08;;
42602;SDS011;28233;55.748;48.752;2023-11-21T03:28:32;4.28;;;2.30;;
42602;SDS011;28233;55.748;48.752;2023-11-21T03:30:35;6.25;;;2.42;;
42602;SDS011;28233;55.748;48.752;2023-11-21T03:32:38;3.95;;;2.20;;
42602;SDS011;28233;55.748;48.752;2023-11-21T03:35:15;6.18;;;2.45;;
42602;SDS011;28233;55.748;48.752;2023-11-21T03:37:10;4.43;;;2.33;;
42602;SDS011;28233;55.748;48.752;2023-11-21T03:39:13;5.28;;;2.97;;
42602;SDS011;28233;55.748;48.752;2023-11-21T03:41:16;4.68;;;2.40;;
42602;SDS011;28233;55.748;48.752;2023-11-21T03:43:19;4.50;;;2.05;;
42602;SDS011;28233;55.748;48.752;2023-11-21T03:45:22;5.55;;;2.58;;
42602;SDS011;28233;55.748;48.752;2023-11-21T03:47:26;4.45;;;2.20;;
42602;SDS011;28233;55.748;48.752;2023-11-21T03:49:30;11.25;;;3.38;;
42602;SDS011;28233;55.748;48.752;2023-11-21T03:51:33;4.57;;;2.58;;
42602;SDS011;28233;55.748;48.752;2023-11-21T03:53:36;5.07;;;2.70;;
42602;SDS011;28233;55.748;48.752;2023-11-21T03:55:39;7.28;;;2.58;;
42602;SDS011;28233;55.748;48.752;2023-11-21T03:57:42;4.93;;;2.72;;
42602;SDS011;28233;55.748;48.752;2023-11-21T03:59:46;2.55;;;1.73;;
42602;SDS011;28233;55.748;48.752;2023-11-21T04:01:49;5.80;;;2.45;;
42602;SDS011;28233;55.748;48.752;2023-11-21T04:03:51;6.72;;;2.63;;
42602;SDS011;28233;55.748;48.752;2023-11-21T04:05:55;4.60;;;2.65;;
42602;SDS011;28233;55.748;48.752;2023-11-21T04:07:58;4.50;;;2.38;;
42602;SDS011;28233;55.748;48.752;2023-11-21T04:10:00;4.53;;;3.15;;
42602;SDS011;28233;55.748;48.752;2023-11-21T04:12:04;6.80;;;2.92;;
42602;SDS011;28233;55.748;48.752;2023-11-21T04:14:08;4.30;;;2.67;;
42602;SDS011;28233;55.748;48.752;2023-11-21T04:16:11;4.15;;;2.50;;
42602;SDS011;28233;55.748;48.752;2023-11-21T04:18:15;10.05;;;2.80;;
42602;SDS011;28233;55.748;48.752;2023-11-21T04:20:18;6.78;;;2.78;;
42602;SDS011;28233;55.748;48.752;2023-11-21T04:22:21;6.75;;;2.72;;
42602;SDS011;28233;55.748;48.752;2023-11-21T04:24:23;5.05;;;2.47;;
42602;SDS011;28233;55.748;48.752;2023-11-21T04:26:26;9.80;;;2.90;;
42602;SDS011;28233;55.748;48.752;2023-11-21T04:28:30;89.00;;;11.48;;
42602;SDS011;28233;55.748;48.752;2023-11-21T04:30:33;5.45;;;2.38;;
42602;SDS011;28233;55.748;48.752;2023-11-21T04:32:36;98.80;;;11.48;;
42602;SDS011;28233;55.748;48.752;2023-11-21T04:34:39;25.20;;;4.40;;
42602;SDS011;28233;55.748;48.752;2023-11-21T04:36:42;6.78;;;2.85;;
42602;SDS011;28233;55.748;48.752;2023-11-21T04:38:45;3.60;;;2.30;;
42602;SDS011;28233;55.748;48.752;2023-11-21T04:40:48;5.93;;;2.22;;
42602;SDS011;28233;55.748;48.752;2023-11-21T04:42:51;4.97;;;2.33;;
42602;SDS011;28233;55.748;48.752;2023-11-21T04:44:54;4.68;;;3.10;;
42602;SDS011;28233;55.748;48.752;2023-11-21T04:46:57;7.95;;;4.30;;
42602;SDS011;28233;55.748;48.752;2023-11-21T04:49:00;9.02;;;2.90;;
42602;SDS011;28233;55.748;48.752;2023-11-21T04:51:03;26.77;;;5.28;;
42602;SDS011;28233;55.748;48.752;2023-11-21T04:53:07;8.80;;;4.15;;
42602;SDS011;28233;55.748;48.752;2023-11-21T04:55:10;5.93;;;2.85;;
42602;SDS011;28233;55.748;48.752;2023-11-21T04:57:13;6.68;;;2.80;;
42602;SDS011;28233;55.748;48.752;2023-11-21T04:59:16;6.03;;;3.60;;
42602;SDS011;28233;55.748;48.752;2023-11-21T05:01:19;11.07;;;3.50;;
42602;SDS011;28233;55.748;48.752;2023-11-21T05:03:22;8.50;;;3.67;;
42602;SDS011;28233;55.748;48.752;2023-11-21T05:05:26;6.20;;;3.47;;
42602;SDS011;28233;55.748;48.752;2023-11-21T05:07:29;7.97;;;4.35;;
42602;SDS011;28233;55.748;48.752;2023-11-21T05:09:34;12.48;;;4.22;;
42602;SDS011;28233;55.748;48.752;2023-11-21T05:11:48;24.05;;;4.55;;
42602;SDS011;28233;55.748;48.752;2023-11-21T05:13:51;124.95;;;12.98;;
42602;SDS011;28233;55.748;48.752;2023-11-21T05:15:55;6.47;;;3.38;;
42602;SDS011;28233;55.748;48.752;2023-11-21T05:18:02;6.40;;;3.05;;
42602;SDS011;28233;55.748;48.752;2023-11-21T05:20:06;10.85;;;3.42;;
42602;SDS011;28233;55.748;48.752;2023-11-21T05:22:12;6.72;;;3.20;;
42602;SDS011;28233;55.748;48.752;2023-11-21T05:24:15;7.57;;;4.03;;
42602;SDS011;28233;55.748;48.752;2023-11-21T05:26:17;7.82;;;4.05;;
42602;SDS011;28233;55.748;48.752;2023-11-21T05:28:20;7.85;;;4.28;;
42602;SDS011;28233;55.748;48.752;2023-11-21T05:30:23;11.02;;;4.10;;
42602;SDS011;28233;55.748;48.752;2023-11-21T05:32:26;6.88;;;4.45;;
42602;SDS011;28233;55.748;48.752;2023-11-21T05:34:30;8.95;;;3.80;;
42602;SDS011;28233;55.748;48.752;2023-11-21T05:36:33;7.93;;;4.30;;
42602;SDS011;28233;55.748;48.752;2023-11-21T05:38:36;6.13;;;3.83;;
42602;SDS011;28233;55.748;48.752;2023-11-21T05:40:39;9.63;;;4.15;;
42602;SDS011;28233;55.748;48.752;2023-11-21T05:42:43;7.45;;;3.83;;
42602;SDS011;28233;55.748;48.752;2023-11-21T05:44:47;6.43;;;3.63;;
42602;SDS011;28233;55.748;48.752;2023-11-21T05:46:50;5.25;;;3.47;;
42602;SDS011;28233;55.748;48.752;2023-11-21T05:48:53;5.97;;;4.80;;
42602;SDS011;28233;55.748;48.752;2023-11-21T05:50:56;9.10;;;4.13;;
42602;SDS011;28233;55.748;48.752;2023-11-21T05:52:58;8.63;;;3.92;;
42602;SDS011;28233;55.748;48.752;2023-11-21T05:55:03;8.20;;;3.72;;
42602;SDS011;28233;55.748;48.752;2023-11-21T05:57:09;8.30;;;4.55;;
42602;SDS011;28233;55.748;48.752;2023-11-21T05:59:12;7.28;;;4.38;;
42602;SDS011;28233;55.748;48.752;2023-11-21T06:01:15;8.25;;;3.88;;
42602;SDS011;28233;55.748;48.752;2023-11-21T06:03:18;9.15;;;4.50;;
42602;SDS011;28233;55.748;48.752;2023-11-21T06:05:22;8.43;;;4.07;;
42602;SDS011;28233;55.748;48.752;2023-11-21T06:07:27;9.90;;;4.55;;
42602;SDS011;28233;55.748;48.752;2023-11-21T06:09:34;8.15;;;4.35;;
42602;SDS011;28233;55.748;48.752;2023-11-21T06:11:37;5.35;;;3.80;;
42602;SDS011;28233;55.748;48.752;2023-11-21T06:13:40;19.98;;;5.93;;
42602;SDS011;28233;55.748;48.752;2023-11-21T06:15:44;7.80;;;3.85;;
42602;SDS011;28233;55.748;48.752;2023-11-21T06:17:47;6.85;;;4.15;;
42602;SDS011;28233;55.748;48.752;2023-11-21T06:19:55;8.10;;;4.30;;
42602;SDS011;28233;55.748;48.752;2023-11-21T06:21:58;48.08;;;8.52;;
42602;SDS011;28233;55.748;48.752;2023-11-21T06:24:02;8.88;;;4.38;;
42602;SDS011;28233;55.748;48.752;2023-11-21T06:26:05;15.88;;;5.93;;
42602;SDS011;28233;55.748;48.752;2023-11-21T06:28:08;6.55;;;4.30;;
42602;SDS011;28233;55.748;48.752;2023-11-21T06:30:11;8.13;;;4.95;;
42602;SDS011;28233;55.748;48.752;2023-11-21T06:32:16;10.77;;;4.18;;
42602;SDS011;28233;55.748;48.752;2023-11-21T06:34:20;12.13;;;5.65;;
42602;SDS011;28233;55.748;48.752;2023-11-21T06:36:24;11.00;;;4.88;;
42602;SDS011;28233;55.748;48.752;2023-11-21T06:38:27;12.73;;;6.05;;
42602;SDS011;28233;55.748;48.752;2023-11-21T06:40:32;8.05;;;4.65;;
42602;SDS011;28233;55.748;48.752;2023-11-21T06:42:36;10.75;;;5.50;;
42602;SDS011;28233;55.748;48.752;2023-11-21T06:44:40;13.95;;;5.70;;
42602;SDS011;28233;55.748;48.752;2023-11-21T06:46:44;9.27;;;4.95;;
42602;SDS011;28233;55.748;48.752;2023-11-21T06:48:47;10.90;;;6.50;;
42602;SDS011;28233;55.748;48.752;2023-11-21T06:50:51;14.23;;;6.00;;
42602;SDS011;28233;55.748;48.752;2023-11-21T06:52:55;9.68;;;5.05;;
42602;SDS011;28233;55.748;48.752;2023-11-21T06:54:58;9.13;;;5.53;;
42602;SDS011;28233;55.748;48.752;2023-11-21T06:57:01;9.10;;;5.80;;
42602;SDS011;28233;55.748;48.752;2023-11-21T06:59:05;12.40;;;5.82;;
42602;SDS011;28233;55.748;48.752;2023-11-21T07:01:08;8.90;;;4.70;;
42602;SDS011;28233;55.748;48.752;2023-11-21T07:03:11;10.43;;;5.05;;
42602;SDS011;28233;55.748;48.752;2023-11-21T07:05:14;12.15;;;5.97;;
42602;SDS011;28233;55.748;48.752;2023-11-21T07:07:18;12.05;;;5.93;;
42602;SDS011;28233;55.748;48.752;2023-11-21T07:09:22;13.20;;;4.85;;
42602;SDS011;28233;55.748;48.752;2023-11-21T07:11:25;9.68;;;6.40;;
42602;SDS011;28233;55.748;48.752;2023-11-21T07:13:28;11.18;;;5.88;;
42602;SDS011;28233;55.748;48.752;2023-11-21T07:15:31;14.15;;;6.55;;
42602;SDS011;28233;55.748;48.752;2023-11-21T07:17:35;10.90;;;5.82;;
42602;SDS011;28233;55.748;48.752;2023-11-21T07:19:42;16.70;;;5.43;;
42602;SDS011;28233;55.748;48.752;2023-11-21T07:21:46;9.23;;;5.57;;
42602;SDS011;28233;55.748;48.752;2023-11-21T07:23:49;10.55;;;6.28;;
42602;SDS011;28233;55.748;48.752;2023-11-21T07:25:52;9.20;;;5.95;;
42602;SDS011;28233;55.748;48.752;2023-11-21T07:27:55;13.30;;;5.78;;
42602;SDS011;28233;55.748;48.752;2023-11-21T07:29:58;11.00;;;5.80;;
42602;SDS011;28233;55.748;48.752;2023-11-21T07:32:01;14.75;;;6.90;;
42602;SDS011;28233;55.748;48.752;2023-11-21T07:34:04;12.90;;;6.13;;
42602;SDS011;28233;55.748;48.752;2023-11-21T07:36:08;11.95;;;7.10;;
42602;SDS011;28233;55.748;48.752;2023-11-21T07:38:12;11.70;;;6.45;;
42602;SDS011;28233;55.748;48.752;2023-11-21T07:40:15;27.50;;;9.32;;
42602;SDS011;28233;55.748;48.752;2023-11-21T07:42:19;13.07;;;6.75;;
42602;SDS011;28233;55.748;48.752;2023-11-21T07:44:23;13.15;;;6.72;;
42602;SDS011;28233;55.748;48.752;2023-11-21T07:46:26;10.48;;;6.38;;
42602;SDS011;28233;55.748;48.752;2023-11-21T07:48:32;11.05;;;7.05;;
42602;SDS011;28233;55.748;48.752;2023-11-21T07:50:36;12.45;;;7.25;;
42602;SDS011;28233;55.748;48.752;2023-11-21T07:52:40;14.25;;;7.13;;
42602;SDS011;28233;55.748;48.752;2023-11-21T07:54:43;14.13;;;6.93;;
42602;SDS011;28233;55.748;48.752;2023-11-21T07:56:46;14.32;;;6.97;;
42602;SDS011;28233;55.748;48.752;2023-11-21T07:58:49;12.70;;;7.25;;
42602;SDS011;28233;55.748;48.752;2023-11-21T08:00:55;13.90;;;7.07;;
42602;SDS011;28233;55.748;48.752;2023-11-21T08:02:58;14.68;;;6.45;;
42602;SDS011;28233;55.748;48.752;2023-11-21T08:05:02;13.20;;;6.35;;
42602;SDS011;28233;55.748;48.752;2023-11-21T08:07:05;12.88;;;6.60;;
42602;SDS011;28233;55.748;48.752;2023-11-21T08:09:08;11.50;;;6.82;;
42602;SDS011;28233;55.748;48.752;2023-11-21T08:11:11;12.52;;;6.97;;
42602;SDS011;28233;55.748;48.752;2023-11-21T08:13:14;14.10;;;7.78;;
42602;SDS011;28233;55.748;48.752;2023-11-21T08:15:19;11.75;;;6.95;;
42602;SDS011;28233;55.748;48.752;2023-11-21T08:17:22;12.27;;;7.50;;
42602;SDS011;28233;55.748;48.752;2023-11-21T08:19:25;11.13;;;6.90;;
42602;SDS011;28233;55.748;48.752;2023-11-21T08:21:29;13.07;;;7.38;;
42602;SDS011;28233;55.748;48.752;2023-11-21T08:23:33;16.67;;;7.90;;
42602;SDS011;28233;55.748;48.752;2023-11-21T08:25:36;10.70;;;6.72;;
42602;SDS011;28233;55.748;48.752;2023-11-21T08:27:39;15.52;;;8.25;;
42602;SDS011;28233;55.748;48.752;2023-11-21T08:29:42;16.38;;;8.45;;
42602;SDS011;28233;55.748;48.752;2023-11-21T08:31:45;18.30;;;9.40;;
42602;SDS011;28233;55.748;48.752;2023-11-21T08:33:51;18.67;;;8.88;;
42602;SDS011;28233;55.748;48.752;2023-11-21T08:35:57;16.80;;;8.10;;
42602;SDS011;28233;55.748;48.752;2023-11-21T08:38:00;16.02;;;8.48;;
42602;SDS011;28233;55.748;48.752;2023-11-21T08:40:03;16.35;;;7.93;;
42602;SDS011;28233;55.748;48.752;2023-11-21T08:42:11;17.25;;;8.65;;
42602;SDS011;28233;55.748;48.752;2023-11-21T08:44:14;16.13;;;7.50;;
42602;SDS011;28233;55.748;48.752;2023-11-21T08:46:18;13.82;;;8.10;;
42602;SDS011;28233;55.748;48.752;2023-11-21T08:48:22;9.82;;;7.22;;
42602;SDS011;28233;55.748;48.752;2023-11-21T08:50:25;11.95;;;6.78;;
42602;SDS011;28233;55.748;48.752;2023-11-21T08:52:28;14.85;;;6.55;;
42602;SDS011;28233;55.748;48.752;2023-11-21T08:54:31;11.70;;;6.00;;
42602;SDS011;28233;55.748;48.752;2023-11-21T08:56:34;10.30;;;6.57;;
42602;SDS011;28233;55.748;48.752;2023-11-21T08:58:37;15.05;;;7.50;;
42602;SDS011;28233;55.748;48.752;2023-11-21T09:00:40;14.10;;;6.07;;
42602;SDS011;28233;55.748;48.752;2023-11-21T09:02:43;9.55;;;6.00;;
42602;SDS011;28233;55.748;48.752;2023-11-21T09:04:47;13.05;;;6.05;;
42602;SDS011;28233;55.748;48.752;2023-11-21T09:06:50;11.25;;;7.07;;
42602;SDS011;28233;55.748;48.752;2023-11-21T09:08:53;10.98;;;6.18;;
42602;SDS011;28233;55.748;48.752;2023-11-21T09:10:56;11.27;;;6.15;;
42602;SDS011;28233;55.748;48.752;2023-11-21T09:12:59;11.30;;;6.43;;
42602;SDS011;28233;55.748;48.752;2023-11-21T09:15:03;9.20;;;6.03;;
42602;SDS011;28233;55.748;48.752;2023-11-21T09:17:10;12.88;;;6.97;;
42602;SDS011;28233;55.748;48.752;2023-11-21T09:19:16;12.65;;;6.90;;
42602;SDS011;28233;55.748;48.752;2023-11-21T09:21:19;13.07;;;5.75;;
42602;SDS011;28233;55.748;48.752;2023-11-21T09:23:22;15.20;;;7.30;;
42602;SDS011;28233;55.748;48.752;2023-11-21T09:25:26;12.00;;;6.32;;
42602;SDS011;28233;55.748;48.752;2023-11-21T09:27:31;12.18;;;6.00;;
42602;SDS011;28233;55.748;48.752;2023-11-21T09:29:34;11.15;;;6.85;;
42602;SDS011;28233;55.748;48.752;2023-11-21T09:31:37;12.32;;;6.97;;
42602;SDS011;28233;55.748;48.752;2023-11-21T09:33:42;13.02;;;6.28;;
42602;SDS011;28233;55.748;48.752;2023-11-21T09:35:46;18.10;;;6.80;;
42602;SDS011;28233;55.748;48.752;2023-11-21T09:37:50;14.02;;;7.25;;
42602;SDS011;28233;55.748;48.752;2023-11-21T09:39:54;14.30;;;8.20;;
42602;SDS011;28233;55.748;48.752;2023-11-21T09:42:04;15.32;;;7.97;;
42602;SDS011;28233;55.748;48.752;2023-11-21T09:44:18;15.07;;;8.63;;
42602;SDS011;28233;55.748;48.752;2023-11-21T09:46:30;21.23;;;9.68;;
42602;SDS011;28233;55.748;48.752;2023-11-21T09:48:33;16.70;;;9.48;;
42602;SDS011;28233;55.748;48.752;2023-11-21T09:50:39;22.52;;;10.93;;
42602;SDS011;28233;55.748;48.752;2023-11-21T09:55:07;20.95;;;9.85;;
42602;SDS011;28233;55.748;48.752;2023-11-21T09:57:10;23.73;;;10.57;;
42602;SDS011;28233;55.748;48.752;2023-11-21T09:59:15;19.13;;;10.77;;
42602;SDS011;28233;55.748;48.752;2023-11-21T10:01:18;24.58;;;11.63;;
42602;SDS011;28233;55.748;48.752;2023-11-21T10:03:23;15.60;;;8.52;;
42602;SDS011;28233;55.748;48.752;2023-11-21T10:05:28;32.78;;;7.85;;
42602;SDS011;28233;55.748;48.752;2023-11-21T10:07:35;13.48;;;7.18;;
42602;SDS011;28233;55.748;48.752;2023-11-21T10:09:38;13.88;;;7.68;;
42602;SDS011;28233;55.748;48.752;2023-11-21T10:11:42;16.95;;;7.95;;
42602;SDS011;28233;55.748;48.752;2023-11-21T10:13:48;16.15;;;9.43;;
42602;SDS011;28233;55.748;48.752;2023-11-21T10:15:56;19.42;;;8.23;;
42602;SDS011;28233;55.748;48.752;2023-11-21T10:18:02;24.10;;;9.07;;
42602;SDS011;28233;55.748;48.752;2023-11-21T10:20:06;20.50;;;8.63;;
42602;SDS011;28233;55.748;48.752;2023-11-21T10:22:15;24.38;;;9.07;;
42602;SDS011;28233;55.748;48.752;2023-11-21T10:24:19;17.23;;;8.23;;
42602;SDS011;28233;55.748;48.752;2023-11-21T10:26:22;14.88;;;7.38;;
42602;SDS011;28233;55.748;48.752;2023-11-21T10:28:35;16.55;;;7.78;;
42602;SDS011;28233;55.748;48.752;2023-11-21T10:30:40;14.05;;;7.57;;
42602;SDS011;28233;55.748;48.752;2023-11-21T10:32:43;20.05;;;9.23;;
42602;SDS011;28233;55.748;48.752;2023-11-21T10:34:55;16.80;;;7.47;;
42602;SDS011;28233;55.748;48.752;2023-11-21T10:37:07;16.48;;;8.20;;
42602;SDS011;28233;55.748;48.752;2023-11-21T10:39:19;17.25;;;9.07;;
42602;SDS011;28233;55.748;48.752;2023-11-21T10:41:26;14.20;;;7.00;;
42602;SDS011;28233;55.748;48.752;2023-11-21T10:43:28;13.23;;;6.75;;
42602;SDS011;28233;55.748;48.752;2023-11-21T10:45:33;11.27;;;5.72;;
42602;SDS011;28233;55.748;48.752;2023-11-21T10:47:37;14.73;;;6.25;;
42602;SDS011;28233;55.748;48.752;2023-11-21T10:49:44;12.18;;;6.38;;
42602;SDS011;28233;55.748;48.752;2023-11-21T10:51:50;11.18;;;5.85;;
42602;SDS011;28233;55.748;48.752;2023-11-21T10:53:58;15.13;;;5.72;;
42602;SDS011;28233;55.748;48.752;2023-11-21T10:56:05;9.90;;;5.68;;
42602;SDS011;28233;55.748;48.752;2023-11-21T10:58:13;14.82;;;6.22;;
42602;SDS011;28233;55.748;48.752;2023-11-21T11:00:17;10.55;;;6.20;;
42602;SDS011;28233;55.748;48.752;2023-11-21T11:02:24;16.70;;;6.57;;
42602;SDS011;28233;55.748;48.752;2023-11-21T11:04:31;11.68;;;6.57;;
42602;SDS011;28233;55.748;48.752;2023-11-21T11:06:34;11.15;;;6.35;;
42602;SDS011;28233;55.748;48.752;2023-11-21T11:08:38;13.85;;;6.45;;
42602;SDS011;28233;55.748;48.752;2023-11-21T11:10:42;9.55;;;5.53;;
42602;SDS011;28233;55.748;48.752;2023-11-21T11:12:45;11.68;;;6.43;;
42602;SDS011;28233;55.748;48.752;2023-11-21T11:14:49;18.13;;;7.55;;
42602;SDS011;28233;55.748;48.752;2023-11-21T11:16:54;12.68;;;6.43;;
42602;SDS011;28233;55.748;48.752;2023-11-21T11:18:58;13.27;;;6.90;;
42602;SDS011;28233;55.748;48.752;2023-11-21T11:21:05;19.45;;;7.40;;
42602;SDS011;28233;55.748;48.752;2023-11-21T11:28:15;11.55;;;6.90;;
42602;SDS011;28233;55.748;48.752;2023-11-21T11:36:00;14.52;;;7.20;;
42602;SDS011;28233;55.748;48.752;2023-11-21T11:38:08;15.00;;;7.25;;
42602;SDS011;28233;55.748;48.752;2023-11-21T11:40:13;18.35;;;7.85;;
42602;SDS011;28233;55.748;48.752;2023-11-21T11:42:18;14.45;;;7.55;;
42602;SDS011;28233;55.748;48.752;2023-11-21T11:46:49;13.15;;;6.63;;
42602;SDS011;28233;55.748;48.752;2023-11-21T11:49:02;23.00;;;7.95;;
42602;SDS011;28233;55.748;48.752;2023-11-21T11:51:15;14.43;;;7.63;;
42602;SDS011;28233;55.748;48.752;2023-11-21T11:53:25;13.25;;;7.28;;
42602;SDS011;28233;55.748;48.752;2023-11-21T11:55:30;15.02;;;6.93;;
42602;SDS011;28233;55.748;48.752;2023-11-21T11:57:41;19.00;;;7.38;;
42602;SDS011;28233;55.748;48.752;2023-11-21T12:02:12;17.25;;;6.85;;
42602;SDS011;28233;55.748;48.752;2023-11-21T12:06:34;15.40;;;7.70;;
42602;SDS011;28233;55.748;48.752;2023-11-21T12:08:38;16.63;;;8.25;;
42602;SDS011;28233;55.748;48.752;2023-11-21T12:10:41;14.07;;;8.02;;
42602;SDS011;28233;55.748;48.752;2023-11-21T12:12:45;20.60;;;8.60;;
42602;SDS011;28233;55.748;48.752;2023-11-21T12:14:52;16.77;;;8.27;;
42602;SDS011;28233;55.748;48.752;2023-11-21T12:16:55;11.85;;;7.80;;
42602;SDS011;28233;55.748;48.752;2023-11-21T12:18:59;18.10;;;8.20;;
42602;SDS011;28233;55.748;48.752;2023-11-21T12:21:05;14.48;;;7.70;;
42602;SDS011;28233;55.748;48.752;2023-11-21T12:23:12;13.60;;;7.43;;
42602;SDS011;28233;55.748;48.752;2023-11-21T12:25:18;21.63;;;7.88;;
42602;SDS011;28233;55.748;48.752;2023-11-21T12:27:23;18.73;;;8.80;;
42602;SDS011;28233;55.748;48.752;2023-11-21T12:29:27;16.27;;;7.72;;
42602;SDS011;28233;55.748;48.752;2023-11-21T12:31:32;15.80;;;8.10;;